sensor_id;sensor_type;location;lat;lon;timestamp;P1;durP1;ratioP1;P2;durP2;ratioP2
55134;SDS011;41031;44.750;11.308;2022-07-26T00:01:38;9.57;;;8.10;;
55134;SDS011;41031;44.750;11.308;2022-07-26T00:04:06;9.67;;;8.60;;
55134;SDS011;41031;44.750;11.308;2022-07-26T00:06:33;13.03;;;8.90;;
55134;SDS011;41031;44.750;11.308;2022-07-26T00:09:00;14.00;;;8.37;;
55134;SDS011;41031;44.750;11.308;2022-07-26T00:11:27;12.67;;;8.63;;
55134;SDS011;41031;44.750;11.308;2022-07-26T00:13:55;10.73;;;8.50;;
55134;SDS011;41031;44.750;11.308;2022-07-26T00:16:22;11.07;;;9.07;;
55134;SDS011;41031;44.750;11.308;2022-07-26T00:18:50;9.57;;;7.80;;
55134;SDS011;41031;44.750;11.308;2022-07-26T00:21:17;11.13;;;8.13;;
55134;SDS011;41031;44.750;11.308;2022-07-26T00:23:44;10.47;;;7.80;;
55134;SDS011;41031;44.750;11.308;2022-07-26T00:26:11;12.03;;;8.97;;
55134;SDS011;41031;44.750;11.308;2022-07-26T00:28:38;10.97;;;8.20;;
55134;SDS011;41031;44.750;11.308;2022-07-26T00:31:06;14.37;;;8.23;;
55134;SDS011;41031;44.750;11.308;2022-07-26T00:33:34;10.97;;;8.53;;
55134;SDS011;41031;44.750;11.308;2022-07-26T00:36:01;9.77;;;8.40;;
55134;SDS011;41031;44.750;11.308;2022-07-26T00:38:28;10.37;;;9.00;;
55134;SDS011;41031;44.750;11.308;2022-07-26T00:40:56;13.10;;;8.80;;
55134;SDS011;41031;44.750;11.308;2022-07-26T00:43:23;10.70;;;8.27;;
55134;SDS011;41031;44.750;11.308;2022-07-26T00:45:50;11.93;;;8.67;;
55134;SDS011;41031;44.750;11.308;2022-07-26T00:48:17;12.90;;;8.23;;
55134;SDS011;41031;44.750;11.308;2022-07-26T00:50:44;10.87;;;8.53;;
55134;SDS011;41031;44.750;11.308;2022-07-26T00:53:11;9.00;;;7.93;;
55134;SDS011;41031;44.750;11.308;2022-07-26T00:55:39;8.90;;;7.37;;
55134;SDS011;41031;44.750;11.308;2022-07-26T00:58:06;9.40;;;8.03;;
55134;SDS011;41031;44.750;11.308;2022-07-26T01:00:33;9.63;;;7.50;;
55134;SDS011;41031;44.750;11.308;2022-07-26T01:03:00;10.03;;;8.73;;
55134;SDS011;41031;44.750;11.308;2022-07-26T01:05:28;8.50;;;7.73;;
55134;SDS011;41031;44.750;11.308;2022-07-26T01:07:55;9.83;;;7.87;;
55134;SDS011;41031;44.750;11.308;2022-07-26T01:10:23;12.60;;;8.10;;
55134;SDS011;41031;44.750;11.308;2022-07-26T01:12:51;9.27;;;7.70;;
55134;SDS011;41031;44.750;11.308;2022-07-26T01:15:18;10.07;;;6.93;;
55134;SDS011;41031;44.750;11.308;2022-07-26T01:17:45;9.70;;;7.63;;
55134;SDS011;41031;44.750;11.308;2022-07-26T01:20:13;9.57;;;7.50;;
55134;SDS011;41031;44.750;11.308;2022-07-26T01:22:40;8.70;;;6.93;;
55134;SDS011;41031;44.750;11.308;2022-07-26T01:25:08;13.13;;;6.97;;
55134;SDS011;41031;44.750;11.308;2022-07-26T01:27:35;8.97;;;7.13;;
55134;SDS011;41031;44.750;11.308;2022-07-26T01:30:07;7.67;;;6.97;;
55134;SDS011;41031;44.750;11.308;2022-07-26T01:32:35;9.23;;;6.80;;
55134;SDS011;41031;44.750;11.308;2022-07-26T01:35:04;11.50;;;7.33;;
55134;SDS011;41031;44.750;11.308;2022-07-26T01:37:31;7.03;;;6.33;;
55134;SDS011;41031;44.750;11.308;2022-07-26T01:39:59;8.97;;;6.97;;
55134;SDS011;41031;44.750;11.308;2022-07-26T01:42:26;11.50;;;7.00;;
55134;SDS011;41031;44.750;11.308;2022-07-26T01:44:53;10.37;;;6.83;;
55134;SDS011;41031;44.750;11.308;2022-07-26T01:47:20;7.07;;;6.47;;
55134;SDS011;41031;44.750;11.308;2022-07-26T01:49:47;10.53;;;7.43;;
55134;SDS011;41031;44.750;11.308;2022-07-26T01:52:14;7.23;;;6.53;;
55134;SDS011;41031;44.750;11.308;2022-07-26T01:54:41;11.07;;;7.13;;
55134;SDS011;41031;44.750;11.308;2022-07-26T01:57:08;7.67;;;6.67;;
55134;SDS011;41031;44.750;11.308;2022-07-26T01:59:35;9.33;;;6.87;;
55134;SDS011;41031;44.750;11.308;2022-07-26T02:02:02;10.13;;;7.27;;
55134;SDS011;41031;44.750;11.308;2022-07-26T02:04:30;8.27;;;7.13;;
55134;SDS011;41031;44.750;11.308;2022-07-26T02:07:15;9.13;;;7.53;;
55134;SDS011;41031;44.750;11.308;2022-07-26T02:09:42;9.17;;;7.13;;
55134;SDS011;41031;44.750;11.308;2022-07-26T02:12:09;9.07;;;7.23;;
55134;SDS011;41031;44.750;11.308;2022-07-26T02:14:36;7.60;;;6.90;;
55134;SDS011;41031;44.750;11.308;2022-07-26T02:17:03;11.67;;;7.27;;
55134;SDS011;41031;44.750;11.308;2022-07-26T02:19:31;8.80;;;6.80;;
55134;SDS011;41031;44.750;11.308;2022-07-26T02:21:58;10.00;;;6.87;;
55134;SDS011;41031;44.750;11.308;2022-07-26T02:24:25;8.13;;;7.33;;
55134;SDS011;41031;44.750;11.308;2022-07-26T02:26:57;8.47;;;7.33;;
55134;SDS011;41031;44.750;11.308;2022-07-26T02:29:26;10.03;;;7.57;;
55134;SDS011;41031;44.750;11.308;2022-07-26T02:31:53;11.10;;;7.07;;
55134;SDS011;41031;44.750;11.308;2022-07-26T02:34:21;8.77;;;6.90;;
55134;SDS011;41031;44.750;11.308;2022-07-26T02:36:49;9.53;;;7.50;;
55134;SDS011;41031;44.750;11.308;2022-07-26T02:39:16;8.60;;;6.63;;
55134;SDS011;41031;44.750;11.308;2022-07-26T02:41:43;8.87;;;7.77;;
55134;SDS011;41031;44.750;11.308;2022-07-26T02:44:11;9.10;;;7.90;;
55134;SDS011;41031;44.750;11.308;2022-07-26T02:46:38;7.83;;;7.13;;
55134;SDS011;41031;44.750;11.308;2022-07-26T02:49:05;9.50;;;7.33;;
55134;SDS011;41031;44.750;11.308;2022-07-26T02:51:32;11.47;;;6.83;;
55134;SDS011;41031;44.750;11.308;2022-07-26T02:53:59;7.47;;;6.87;;
55134;SDS011;41031;44.750;11.308;2022-07-26T02:56:26;13.63;;;6.83;;
55134;SDS011;41031;44.750;11.308;2022-07-26T02:58:53;9.90;;;6.80;;
55134;SDS011;41031;44.750;11.308;2022-07-26T03:01:21;9.33;;;6.93;;
55134;SDS011;41031;44.750;11.308;2022-07-26T03:03:48;12.07;;;7.10;;
55134;SDS011;41031;44.750;11.308;2022-07-26T03:06:17;11.77;;;7.67;;
55134;SDS011;41031;44.750;11.308;2022-07-26T03:08:45;13.40;;;7.70;;
55134;SDS011;41031;44.750;11.308;2022-07-26T03:11:12;9.47;;;7.07;;
55134;SDS011;41031;44.750;11.308;2022-07-26T03:13:39;11.37;;;7.27;;
55134;SDS011;41031;44.750;11.308;2022-07-26T03:16:06;12.67;;;7.93;;
55134;SDS011;41031;44.750;11.308;2022-07-26T03:18:34;9.23;;;7.40;;
55134;SDS011;41031;44.750;11.308;2022-07-26T03:21:01;15.40;;;7.57;;
55134;SDS011;41031;44.750;11.308;2022-07-26T03:23:29;8.17;;;7.40;;
55134;SDS011;41031;44.750;11.308;2022-07-26T03:25:59;10.83;;;7.40;;
55134;SDS011;41031;44.750;11.308;2022-07-26T03:28:31;9.50;;;7.43;;
55134;SDS011;41031;44.750;11.308;2022-07-26T03:30:59;11.47;;;7.73;;
55134;SDS011;41031;44.750;11.308;2022-07-26T03:33:26;11.57;;;8.70;;
55134;SDS011;41031;44.750;11.308;2022-07-26T03:35:54;9.87;;;7.60;;
55134;SDS011;41031;44.750;11.308;2022-07-26T03:38:21;10.37;;;8.50;;
55134;SDS011;41031;44.750;11.308;2022-07-26T03:40:48;9.03;;;7.90;;
55134;SDS011;41031;44.750;11.308;2022-07-26T03:43:15;10.43;;;7.67;;
55134;SDS011;41031;44.750;11.308;2022-07-26T03:45:48;9.07;;;8.13;;
55134;SDS011;41031;44.750;11.308;2022-07-26T03:48:16;10.73;;;8.23;;
55134;SDS011;41031;44.750;11.308;2022-07-26T03:50:43;13.00;;;8.23;;
55134;SDS011;41031;44.750;11.308;2022-07-26T03:53:10;12.17;;;8.13;;
55134;SDS011;41031;44.750;11.308;2022-07-26T03:55:37;10.00;;;8.10;;
55134;SDS011;41031;44.750;11.308;2022-07-26T03:58:22;9.97;;;8.03;;
55134;SDS011;41031;44.750;11.308;2022-07-26T04:00:49;10.17;;;8.03;;
55134;SDS011;41031;44.750;11.308;2022-07-26T04:03:16;11.47;;;8.07;;
55134;SDS011;41031;44.750;11.308;2022-07-26T04:05:44;10.70;;;9.00;;
55134;SDS011;41031;44.750;11.308;2022-07-26T04:08:14;12.20;;;8.60;;
55134;SDS011;41031;44.750;11.308;2022-07-26T04:10:48;8.50;;;7.80;;
55134;SDS011;41031;44.750;11.308;2022-07-26T04:13:19;14.43;;;9.07;;
55134;SDS011;41031;44.750;11.308;2022-07-26T04:15:46;11.03;;;9.50;;
55134;SDS011;41031;44.750;11.308;2022-07-26T04:18:13;9.70;;;8.70;;
55134;SDS011;41031;44.750;11.308;2022-07-26T04:20:40;12.13;;;8.73;;
55134;SDS011;41031;44.750;11.308;2022-07-26T04:23:08;11.93;;;9.23;;
55134;SDS011;41031;44.750;11.308;2022-07-26T04:25:38;14.27;;;8.70;;
55134;SDS011;41031;44.750;11.308;2022-07-26T04:28:07;12.70;;;8.53;;
55134;SDS011;41031;44.750;11.308;2022-07-26T04:30:35;12.03;;;9.27;;
55134;SDS011;41031;44.750;11.308;2022-07-26T04:33:03;10.37;;;8.40;;
55134;SDS011;41031;44.750;11.308;2022-07-26T04:35:31;11.03;;;8.60;;
55134;SDS011;41031;44.750;11.308;2022-07-26T04:37:58;14.93;;;9.63;;
55134;SDS011;41031;44.750;11.308;2022-07-26T04:40:25;14.37;;;8.60;;
55134;SDS011;41031;44.750;11.308;2022-07-26T04:42:54;14.63;;;8.83;;
55134;SDS011;41031;44.750;11.308;2022-07-26T04:45:21;12.83;;;9.37;;
55134;SDS011;41031;44.750;11.308;2022-07-26T04:47:48;13.57;;;10.17;;
55134;SDS011;41031;44.750;11.308;2022-07-26T04:50:17;13.53;;;9.33;;
55134;SDS011;41031;44.750;11.308;2022-07-26T04:52:45;17.77;;;10.20;;
55134;SDS011;41031;44.750;11.308;2022-07-26T04:55:12;15.20;;;9.93;;
55134;SDS011;41031;44.750;11.308;2022-07-26T04:57:40;11.13;;;10.03;;
55134;SDS011;41031;44.750;11.308;2022-07-26T05:00:08;12.60;;;10.17;;
55134;SDS011;41031;44.750;11.308;2022-07-26T05:02:55;11.83;;;10.03;;
55134;SDS011;41031;44.750;11.308;2022-07-26T05:05:25;13.77;;;9.70;;
55134;SDS011;41031;44.750;11.308;2022-07-26T05:07:54;13.97;;;9.57;;
55134;SDS011;41031;44.750;11.308;2022-07-26T05:10:33;18.17;;;9.70;;
55134;SDS011;41031;44.750;11.308;2022-07-26T05:13:03;13.70;;;8.80;;
55134;SDS011;41031;44.750;11.308;2022-07-26T05:15:31;10.13;;;8.80;;
55134;SDS011;41031;44.750;11.308;2022-07-26T05:18:05;12.60;;;9.03;;
55134;SDS011;41031;44.750;11.308;2022-07-26T05:20:36;10.57;;;9.43;;
55134;SDS011;41031;44.750;11.308;2022-07-26T05:23:03;12.40;;;9.67;;
55134;SDS011;41031;44.750;11.308;2022-07-26T05:25:30;10.23;;;9.20;;
55134;SDS011;41031;44.750;11.308;2022-07-26T05:27:58;12.73;;;9.07;;
55134;SDS011;41031;44.750;11.308;2022-07-26T05:30:25;8.37;;;7.57;;
55134;SDS011;41031;44.750;11.308;2022-07-26T05:32:52;10.97;;;9.10;;
55134;SDS011;41031;44.750;11.308;2022-07-26T05:35:20;15.60;;;8.67;;
55134;SDS011;41031;44.750;11.308;2022-07-26T05:37:47;14.73;;;9.33;;
55134;SDS011;41031;44.750;11.308;2022-07-26T05:40:14;10.30;;;9.20;;
55134;SDS011;41031;44.750;11.308;2022-07-26T05:42:42;8.67;;;7.77;;
55134;SDS011;41031;44.750;11.308;2022-07-26T05:45:09;14.07;;;8.30;;
55134;SDS011;41031;44.750;11.308;2022-07-26T05:47:36;10.30;;;8.50;;
55134;SDS011;41031;44.750;11.308;2022-07-26T05:50:04;10.90;;;7.80;;
55134;SDS011;41031;44.750;11.308;2022-07-26T05:52:32;12.97;;;8.50;;
55134;SDS011;41031;44.750;11.308;2022-07-26T05:54:59;12.30;;;8.50;;
55134;SDS011;41031;44.750;11.308;2022-07-26T05:57:26;8.63;;;7.67;;
55134;SDS011;41031;44.750;11.308;2022-07-26T05:59:53;9.57;;;8.53;;
55134;SDS011;41031;44.750;11.308;2022-07-26T06:02:20;12.97;;;8.20;;
55134;SDS011;41031;44.750;11.308;2022-07-26T06:04:47;12.27;;;7.57;;
55134;SDS011;41031;44.750;11.308;2022-07-26T06:07:14;8.77;;;7.50;;
55134;SDS011;41031;44.750;11.308;2022-07-26T06:09:42;8.13;;;7.13;;
55134;SDS011;41031;44.750;11.308;2022-07-26T06:12:09;14.63;;;7.83;;
55134;SDS011;41031;44.750;11.308;2022-07-26T06:14:36;8.70;;;6.77;;
55134;SDS011;41031;44.750;11.308;2022-07-26T06:17:03;10.43;;;6.97;;
55134;SDS011;41031;44.750;11.308;2022-07-26T06:19:30;12.10;;;8.87;;
55134;SDS011;41031;44.750;11.308;2022-07-26T06:21:58;10.97;;;6.73;;
55134;SDS011;41031;44.750;11.308;2022-07-26T06:24:25;12.53;;;7.70;;
55134;SDS011;41031;44.750;11.308;2022-07-26T06:26:53;8.17;;;7.13;;
55134;SDS011;41031;44.750;11.308;2022-07-26T06:29:30;11.63;;;7.57;;
55134;SDS011;41031;44.750;11.308;2022-07-26T06:31:58;7.23;;;6.43;;
55134;SDS011;41031;44.750;11.308;2022-07-26T06:34:25;8.00;;;6.20;;
55134;SDS011;41031;44.750;11.308;2022-07-26T06:36:52;13.17;;;6.37;;
55134;SDS011;41031;44.750;11.308;2022-07-26T06:39:19;6.90;;;6.30;;
55134;SDS011;41031;44.750;11.308;2022-07-26T06:41:46;8.60;;;6.73;;
55134;SDS011;41031;44.750;11.308;2022-07-26T06:44:20;10.87;;;6.37;;
55134;SDS011;41031;44.750;11.308;2022-07-26T06:46:48;9.03;;;6.10;;
55134;SDS011;41031;44.750;11.308;2022-07-26T06:49:15;9.50;;;6.37;;
55134;SDS011;41031;44.750;11.308;2022-07-26T06:51:47;12.37;;;8.30;;
55134;SDS011;41031;44.750;11.308;2022-07-26T06:54:14;7.40;;;5.60;;
55134;SDS011;41031;44.750;11.308;2022-07-26T06:56:41;6.67;;;5.60;;
55134;SDS011;41031;44.750;11.308;2022-07-26T06:59:09;24.37;;;8.40;;
55134;SDS011;41031;44.750;11.308;2022-07-26T07:01:36;12.10;;;6.47;;
55134;SDS011;41031;44.750;11.308;2022-07-26T07:04:23;10.17;;;7.27;;
55134;SDS011;41031;44.750;11.308;2022-07-26T07:06:50;9.53;;;5.53;;
55134;SDS011;41031;44.750;11.308;2022-07-26T07:09:18;6.40;;;5.17;;
55134;SDS011;41031;44.750;11.308;2022-07-26T07:11:45;6.03;;;5.53;;
55134;SDS011;41031;44.750;11.308;2022-07-26T07:14:21;8.83;;;4.87;;
55134;SDS011;41031;44.750;11.308;2022-07-26T07:16:48;6.00;;;5.40;;
55134;SDS011;41031;44.750;11.308;2022-07-26T07:19:15;6.77;;;5.10;;
55134;SDS011;41031;44.750;11.308;2022-07-26T07:21:43;6.00;;;5.40;;
55134;SDS011;41031;44.750;11.308;2022-07-26T07:24:10;10.07;;;5.17;;
55134;SDS011;41031;44.750;11.308;2022-07-26T07:26:37;8.90;;;5.63;;
55134;SDS011;41031;44.750;11.308;2022-07-26T07:29:04;5.33;;;4.63;;
55134;SDS011;41031;44.750;11.308;2022-07-26T07:31:31;5.87;;;4.90;;
55134;SDS011;41031;44.750;11.308;2022-07-26T07:34:15;7.93;;;5.07;;
55134;SDS011;41031;44.750;11.308;2022-07-26T07:36:45;5.67;;;4.47;;
55134;SDS011;41031;44.750;11.308;2022-07-26T07:39:12;8.27;;;5.37;;
55134;SDS011;41031;44.750;11.308;2022-07-26T07:41:43;5.17;;;4.67;;
55134;SDS011;41031;44.750;11.308;2022-07-26T07:44:11;5.67;;;4.97;;
55134;SDS011;41031;44.750;11.308;2022-07-26T07:46:38;6.73;;;4.47;;
55134;SDS011;41031;44.750;11.308;2022-07-26T07:49:06;7.97;;;5.40;;
55134;SDS011;41031;44.750;11.308;2022-07-26T07:51:34;6.73;;;4.97;;
55134;SDS011;41031;44.750;11.308;2022-07-26T07:54:01;5.17;;;4.60;;
55134;SDS011;41031;44.750;11.308;2022-07-26T07:56:31;8.53;;;5.00;;
55134;SDS011;41031;44.750;11.308;2022-07-26T07:58:58;10.07;;;5.50;;
55134;SDS011;41031;44.750;11.308;2022-07-26T08:01:25;9.47;;;5.47;;
55134;SDS011;41031;44.750;11.308;2022-07-26T08:04:06;6.37;;;5.13;;
55134;SDS011;41031;44.750;11.308;2022-07-26T08:06:34;6.13;;;4.37;;
55134;SDS011;41031;44.750;11.308;2022-07-26T08:09:02;5.17;;;4.67;;
55134;SDS011;41031;44.750;11.308;2022-07-26T08:11:32;11.20;;;6.37;;
55134;SDS011;41031;44.750;11.308;2022-07-26T08:13:59;7.87;;;5.50;;
55134;SDS011;41031;44.750;11.308;2022-07-26T08:16:27;9.77;;;5.07;;
55134;SDS011;41031;44.750;11.308;2022-07-26T08:18:54;6.57;;;4.50;;
55134;SDS011;41031;44.750;11.308;2022-07-26T08:21:34;7.97;;;5.60;;
55134;SDS011;41031;44.750;11.308;2022-07-26T08:24:01;7.37;;;5.07;;
55134;SDS011;41031;44.750;11.308;2022-07-26T08:26:28;7.77;;;5.07;;
55134;SDS011;41031;44.750;11.308;2022-07-26T08:28:55;6.40;;;5.30;;
55134;SDS011;41031;44.750;11.308;2022-07-26T08:31:26;6.40;;;4.33;;
55134;SDS011;41031;44.750;11.308;2022-07-26T08:33:54;7.47;;;4.70;;
55134;SDS011;41031;44.750;11.308;2022-07-26T08:36:21;7.13;;;4.73;;
55134;SDS011;41031;44.750;11.308;2022-07-26T08:38:48;5.27;;;4.80;;
55134;SDS011;41031;44.750;11.308;2022-07-26T08:41:16;5.67;;;5.03;;
55134;SDS011;41031;44.750;11.308;2022-07-26T08:43:44;7.00;;;4.70;;
55134;SDS011;41031;44.750;11.308;2022-07-26T08:46:22;6.83;;;5.20;;
55134;SDS011;41031;44.750;11.308;2022-07-26T08:48:53;8.93;;;4.80;;
55134;SDS011;41031;44.750;11.308;2022-07-26T08:51:22;9.10;;;4.43;;
55134;SDS011;41031;44.750;11.308;2022-07-26T08:53:51;8.00;;;4.83;;
55134;SDS011;41031;44.750;11.308;2022-07-26T08:56:30;4.37;;;3.87;;
55134;SDS011;41031;44.750;11.308;2022-07-26T08:58:58;6.97;;;4.20;;
55134;SDS011;41031;44.750;11.308;2022-07-26T09:01:27;6.00;;;4.70;;
55134;SDS011;41031;44.750;11.308;2022-07-26T09:03:55;7.43;;;4.17;;
55134;SDS011;41031;44.750;11.308;2022-07-26T09:06:22;8.00;;;4.60;;
55134;SDS011;41031;44.750;11.308;2022-07-26T09:08:53;5.53;;;4.00;;
55134;SDS011;41031;44.750;11.308;2022-07-26T09:11:37;5.67;;;4.70;;
55134;SDS011;41031;44.750;11.308;2022-07-26T09:14:04;5.93;;;5.00;;
55134;SDS011;41031;44.750;11.308;2022-07-26T09:16:32;6.07;;;4.60;;
55134;SDS011;41031;44.750;11.308;2022-07-26T09:19:16;7.87;;;4.57;;
55134;SDS011;41031;44.750;11.308;2022-07-26T09:21:48;6.20;;;4.60;;
55134;SDS011;41031;44.750;11.308;2022-07-26T09:24:32;6.90;;;4.40;;
55134;SDS011;41031;44.750;11.308;2022-07-26T09:27:05;9.03;;;4.77;;
55134;SDS011;41031;44.750;11.308;2022-07-26T09:29:53;7.00;;;4.17;;
55134;SDS011;41031;44.750;11.308;2022-07-26T09:32:23;10.73;;;4.60;;
55134;SDS011;41031;44.750;11.308;2022-07-26T09:34:54;6.00;;;4.90;;
55134;SDS011;41031;44.750;11.308;2022-07-26T09:37:54;9.10;;;4.90;;
55134;SDS011;41031;44.750;11.308;2022-07-26T09:40:21;6.37;;;4.60;;
55134;SDS011;41031;44.750;11.308;2022-07-26T09:46:01;6.43;;;4.60;;
55134;SDS011;41031;44.750;11.308;2022-07-26T09:48:30;7.97;;;5.07;;
55134;SDS011;41031;44.750;11.308;2022-07-26T09:51:33;5.63;;;5.00;;
55134;SDS011;41031;44.750;11.308;2022-07-26T09:54:04;5.57;;;4.40;;
55134;SDS011;41031;44.750;11.308;2022-07-26T09:59:09;6.72;;;5.32;;
55134;SDS011;41031;44.750;11.308;2022-07-26T10:01:39;8.15;;;4.85;;
55134;SDS011;41031;44.750;11.308;2022-07-26T10:04:06;8.23;;;4.97;;
55134;SDS011;41031;44.750;11.308;2022-07-26T10:06:34;9.00;;;5.32;;
55134;SDS011;41031;44.750;11.308;2022-07-26T10:09:02;10.63;;;5.55;;
55134;SDS011;41031;44.750;11.308;2022-07-26T10:11:44;7.43;;;5.05;;
55134;SDS011;41031;44.750;11.308;2022-07-26T10:19:58;6.13;;;5.30;;
55134;SDS011;41031;44.750;11.308;2022-07-26T10:22:43;6.93;;;5.00;;
55134;SDS011;41031;44.750;11.308;2022-07-26T10:27:49;7.30;;;4.85;;
55134;SDS011;41031;44.750;11.308;2022-07-26T10:35:39;7.55;;;5.50;;
55134;SDS011;41031;44.750;11.308;2022-07-26T10:38:09;7.93;;;5.20;;
55134;SDS011;41031;44.750;11.308;2022-07-26T10:40:58;7.22;;;5.75;;
55134;SDS011;41031;44.750;11.308;2022-07-26T10:43:26;10.63;;;5.18;;
55134;SDS011;41031;44.750;11.308;2022-07-26T10:51:30;9.30;;;5.28;;
55134;SDS011;41031;44.750;11.308;2022-07-26T10:54:03;6.63;;;5.63;;
55134;SDS011;41031;44.750;11.308;2022-07-26T10:56:31;9.75;;;5.70;;
55134;SDS011;41031;44.750;11.308;2022-07-26T10:59:00;8.73;;;5.32;;
55134;SDS011;41031;44.750;11.308;2022-07-26T11:01:34;10.35;;;5.55;;
55134;SDS011;41031;44.750;11.308;2022-07-26T11:04:04;6.60;;;5.15;;
55134;SDS011;41031;44.750;11.308;2022-07-26T11:06:33;8.45;;;5.25;;
55134;SDS011;41031;44.750;11.308;2022-07-26T11:09:08;6.15;;;5.32;;
55134;SDS011;41031;44.750;11.308;2022-07-26T11:11:36;8.95;;;5.90;;
55134;SDS011;41031;44.750;11.308;2022-07-26T11:16:38;6.88;;;5.22;;
55134;SDS011;41031;44.750;11.308;2022-07-26T11:19:40;7.72;;;5.70;;
55134;SDS011;41031;44.750;11.308;2022-07-26T11:22:04;8.68;;;5.57;;
55134;SDS011;41031;44.750;11.308;2022-07-26T11:24:31;6.07;;;5.50;;
55134;SDS011;41031;44.750;11.308;2022-07-26T11:27:06;6.35;;;5.22;;
55134;SDS011;41031;44.750;11.308;2022-07-26T11:29:33;8.80;;;5.88;;
55134;SDS011;41031;44.750;11.308;2022-07-26T11:32:14;8.18;;;5.38;;
55134;SDS011;41031;44.750;11.308;2022-07-26T11:34:44;5.97;;;5.40;;
55134;SDS011;41031;44.750;11.308;2022-07-26T11:37:12;12.05;;;5.85;;
55134;SDS011;41031;44.750;11.308;2022-07-26T11:39:39;7.22;;;6.53;;
55134;SDS011;41031;44.750;11.308;2022-07-26T11:42:10;6.55;;;5.63;;
55134;SDS011;41031;44.750;11.308;2022-07-26T11:44:45;16.08;;;6.40;;
55134;SDS011;41031;44.750;11.308;2022-07-26T11:47:16;7.18;;;5.75;;
55134;SDS011;41031;44.750;11.308;2022-07-26T11:49:51;10.27;;;5.88;;
55134;SDS011;41031;44.750;11.308;2022-07-26T11:52:39;9.40;;;6.70;;
55134;SDS011;41031;44.750;11.308;2022-07-26T11:55:06;10.40;;;5.75;;
55134;SDS011;41031;44.750;11.308;2022-07-26T11:57:33;6.85;;;5.80;;
55134;SDS011;41031;44.750;11.308;2022-07-26T12:00:01;7.75;;;6.65;;
55134;SDS011;41031;44.750;11.308;2022-07-26T12:02:38;7.70;;;6.30;;
55134;SDS011;41031;44.750;11.308;2022-07-26T12:05:19;7.35;;;6.50;;
55134;SDS011;41031;44.750;11.308;2022-07-26T12:07:51;8.65;;;6.47;;
55134;SDS011;41031;44.750;11.308;2022-07-26T12:10:20;8.25;;;6.13;;
55134;SDS011;41031;44.750;11.308;2022-07-26T12:12:48;7.88;;;6.18;;
55134;SDS011;41031;44.750;11.308;2022-07-26T12:15:15;7.43;;;5.90;;
55134;SDS011;41031;44.750;11.308;2022-07-26T12:18:00;6.57;;;5.97;;
55134;SDS011;41031;44.750;11.308;2022-07-26T12:20:27;6.80;;;6.22;;
55134;SDS011;41031;44.750;11.308;2022-07-26T12:22:55;7.00;;;6.28;;
55134;SDS011;41031;44.750;11.308;2022-07-26T12:25:26;5.70;;;5.30;;
55134;SDS011;41031;44.750;11.308;2022-07-26T12:27:54;6.95;;;6.22;;
55134;SDS011;41031;44.750;11.308;2022-07-26T12:30:22;11.13;;;5.90;;
55134;SDS011;41031;44.750;11.308;2022-07-26T12:32:59;6.07;;;5.57;;
55134;SDS011;41031;44.750;11.308;2022-07-26T12:35:28;7.95;;;5.70;;
55134;SDS011;41031;44.750;11.308;2022-07-26T12:38:03;8.63;;;6.50;;
55134;SDS011;41031;44.750;11.308;2022-07-26T12:40:38;7.38;;;6.68;;
55134;SDS011;41031;44.750;11.308;2022-07-26T12:43:07;6.20;;;5.68;;
55134;SDS011;41031;44.750;11.308;2022-07-26T12:45:35;10.38;;;6.88;;
55134;SDS011;41031;44.750;11.308;2022-07-26T12:48:06;7.60;;;5.45;;
55134;SDS011;41031;44.750;11.308;2022-07-26T12:50:38;11.10;;;5.30;;
55134;SDS011;41031;44.750;11.308;2022-07-26T12:53:05;7.25;;;5.03;;
55134;SDS011;41031;44.750;11.308;2022-07-26T12:55:37;6.60;;;5.03;;
55134;SDS011;41031;44.750;11.308;2022-07-26T12:58:05;6.83;;;5.90;;
55134;SDS011;41031;44.750;11.308;2022-07-26T13:00:32;10.20;;;5.47;;
55134;SDS011;41031;44.750;11.308;2022-07-26T13:02:59;6.63;;;6.03;;
55134;SDS011;41031;44.750;11.308;2022-07-26T13:05:26;10.23;;;6.03;;
55134;SDS011;41031;44.750;11.308;2022-07-26T13:07:53;10.50;;;5.43;;
55134;SDS011;41031;44.750;11.308;2022-07-26T13:10:21;6.30;;;5.20;;
55134;SDS011;41031;44.750;11.308;2022-07-26T13:13:00;7.70;;;5.35;;
55134;SDS011;41031;44.750;11.308;2022-07-26T13:15:27;5.97;;;4.65;;
55134;SDS011;41031;44.750;11.308;2022-07-26T13:18:06;7.93;;;5.18;;
55134;SDS011;41031;44.750;11.308;2022-07-26T13:20:37;8.40;;;5.67;;
55134;SDS011;41031;44.750;11.308;2022-07-26T13:23:05;5.57;;;5.17;;
55134;SDS011;41031;44.750;11.308;2022-07-26T13:25:41;8.13;;;5.80;;
55134;SDS011;41031;44.750;11.308;2022-07-26T13:28:08;5.68;;;5.07;;
55134;SDS011;41031;44.750;11.308;2022-07-26T13:30:36;6.20;;;5.18;;
55134;SDS011;41031;44.750;11.308;2022-07-26T13:33:05;9.75;;;5.45;;
55134;SDS011;41031;44.750;11.308;2022-07-26T13:35:32;9.40;;;5.75;;
55134;SDS011;41031;44.750;11.308;2022-07-26T13:37:59;8.52;;;5.25;;
55134;SDS011;41031;44.750;11.308;2022-07-26T13:40:27;7.78;;;5.35;;
55134;SDS011;41031;44.750;11.308;2022-07-26T13:42:57;6.82;;;5.50;;
55134;SDS011;41031;44.750;11.308;2022-07-26T13:45:24;6.28;;;5.65;;
55134;SDS011;41031;44.750;11.308;2022-07-26T13:47:55;11.65;;;5.80;;
55134;SDS011;41031;44.750;11.308;2022-07-26T13:50:26;9.65;;;5.45;;
55134;SDS011;41031;44.750;11.308;2022-07-26T13:52:54;8.98;;;5.18;;
55134;SDS011;41031;44.750;11.308;2022-07-26T13:55:22;7.38;;;5.60;;
55134;SDS011;41031;44.750;11.308;2022-07-26T13:57:49;12.15;;;5.70;;
55134;SDS011;41031;44.750;11.308;2022-07-26T14:00:25;7.13;;;5.72;;
55134;SDS011;41031;44.750;11.308;2022-07-26T14:02:54;7.50;;;5.50;;
55134;SDS011;41031;44.750;11.308;2022-07-26T14:05:23;11.77;;;6.50;;
55134;SDS011;41031;44.750;11.308;2022-07-26T14:07:52;12.73;;;5.32;;
55134;SDS011;41031;44.750;11.308;2022-07-26T14:10:20;7.95;;;5.63;;
55134;SDS011;41031;44.750;11.308;2022-07-26T14:12:48;7.05;;;5.32;;
55134;SDS011;41031;44.750;11.308;2022-07-26T14:15:15;8.63;;;5.45;;
55134;SDS011;41031;44.750;11.308;2022-07-26T14:17:48;9.27;;;5.18;;
55134;SDS011;41031;44.750;11.308;2022-07-26T14:20:18;7.88;;;5.40;;
55134;SDS011;41031;44.750;11.308;2022-07-26T14:22:46;9.60;;;5.38;;
55134;SDS011;41031;44.750;11.308;2022-07-26T14:25:13;6.40;;;5.60;;
55134;SDS011;41031;44.750;11.308;2022-07-26T14:27:40;10.00;;;5.50;;
55134;SDS011;41031;44.750;11.308;2022-07-26T14:30:08;7.88;;;5.53;;
55134;SDS011;41031;44.750;11.308;2022-07-26T14:32:35;8.27;;;5.60;;
55134;SDS011;41031;44.750;11.308;2022-07-26T14:35:03;12.82;;;5.68;;
55134;SDS011;41031;44.750;11.308;2022-07-26T14:37:30;6.78;;;5.25;;
55134;SDS011;41031;44.750;11.308;2022-07-26T14:40:11;8.63;;;5.32;;
55134;SDS011;41031;44.750;11.308;2022-07-26T14:42:42;7.57;;;5.32;;
55134;SDS011;41031;44.750;11.308;2022-07-26T14:45:10;9.43;;;5.30;;
55134;SDS011;41031;44.750;11.308;2022-07-26T14:47:38;5.97;;;5.43;;
55134;SDS011;41031;44.750;11.308;2022-07-26T14:50:06;8.40;;;5.50;;
55134;SDS011;41031;44.750;11.308;2022-07-26T14:52:38;7.63;;;5.22;;
55134;SDS011;41031;44.750;11.308;2022-07-26T14:55:07;8.32;;;5.40;;
55134;SDS011;41031;44.750;11.308;2022-07-26T14:57:35;10.48;;;5.57;;
55134;SDS011;41031;44.750;11.308;2022-07-26T15:00:05;11.27;;;5.55;;
55134;SDS011;41031;44.750;11.308;2022-07-26T15:02:41;9.60;;;5.50;;
55134;SDS011;41031;44.750;11.308;2022-07-26T15:05:09;5.82;;;5.20;;
55134;SDS011;41031;44.750;11.308;2022-07-26T15:07:38;7.40;;;5.33;;
55134;SDS011;41031;44.750;11.308;2022-07-26T15:10:07;6.70;;;4.88;;